Auburndale, Wisconsin
Current Conditions -  °F | °C
As of 1:54 AM on Monday 24 Nov 2014 (Local Time) from KMFI Reporting Station
Haze Haze  
Wind Chill:   Ceiling: 300
Heat Index:   Visibility: 0.75mi
Dew Point:   Wind: 7mph
Humidity: 96%   Direction: 290°WNW
Pressure: 29.09"   Gusts: NA
Location:  44.63°N, 90.01°W
Report Text: KMFI 240754Z AUTO 29006KT 3/4SM BR OVC003 06/05 A2909 RMK AO2 RAE43 SLP857 P0001 T00560050
Loading
Personal Weather Stations






























Interactive Weather Map New forecast layout! Learn more

10-Day Weather Forecast

Advertisements
Track Severe Weather on mobile